Climatologie pour Saint-Brevin les Pins
Jour • Résumé pour février 19, 2017 Système :  Métrique    Anglais   Mixte
« - 1 jour
+ 1 jour »
Jour Semaine Mois Année Personnalisé
  Maximum : Minimum : Moyenne :
Température sous abri : 11.9 °C -1.3 °C 5.5 °C
Point de rosée : 8.7 °C -1.7 °C 4.2 °C
Humidité : 98 % 74 % 91 %
Vitesse du vent : 11.3 km/h 0.0 km/h 2.1 km/h
Rafale : 16.1 km/h - -
Direction :- - West
Pression : 1028.0 hPa 1024.6 hPa -
Précipitations : 0.0 mm    
Historical Graphs
 
 
Tableau de données pour février 19, 2017
Heure Tempé Pt rosée Pression Vent Vitesse Rafale Humidité Taux pluie (/hr) Soleil
00:00 1.9 °C 1.3 °C 1024.6 hPa Calm     96 % 0.0 mm 0 W/m2
00:05 1.9 °C 1.4 °C 1024.6 hPa Calm     96 % 0.0 mm 0 W/m2
00:10 1.7 °C 1.0 °C 1024.6 hPa Calm     95 % 0.0 mm 0 W/m2
00:15 1.7 °C 1.1 °C 1024.9 hPa Calm     96 % 0.0 mm 0 W/m2
00:20 1.7 °C 1.1 °C 1024.6 hPa Calm     96 % 0.0 mm 0 W/m2
00:25 1.8 °C 1.3 °C 1024.9 hPa Calm     96 % 0.0 mm 0 W/m2
00:30 1.7 °C 1.1 °C 1024.9 hPa Calm     96 % 0.0 mm 0 W/m2
00:35 1.5 °C 0.9 °C 1024.9 hPa Calm     96 % 0.0 mm 0 W/m2
00:40 1.4 °C 0.9 °C 1024.9 hPa Calm     96 % 0.0 mm 0 W/m2
00:45 1.7 °C 1.1 °C 1024.9 hPa Calm     96 % 0.0 mm 0 W/m2
00:50 1.4 °C 0.9 °C 1024.9 hPa Calm     96 % 0.0 mm 0 W/m2
00:55 1.6 °C 1.0 °C 1024.9 hPa Calm     96 % 0.0 mm 0 W/m2
01:00 1.3 °C 0.8 °C 1024.9 hPa Calm     96 % 0.0 mm 0 W/m2
01:05 1.3 °C 0.7 °C 1024.9 hPa Calm     96 % 0.0 mm 0 W/m2
01:10 1.6 °C 1.2 °C 1024.9 hPa Calm   1.6 km/h 97 % 0.0 mm 0 W/m2
01:15 1.7 °C 1.1 °C 1024.9 hPa Calm   1.6 km/h 96 % 0.0 mm 0 W/m2
01:20 1.3 °C 0.8 °C 1024.9 hPa Calm     96 % 0.0 mm 0 W/m2
01:25 1.3 °C 0.7 °C 1024.9 hPa Calm     96 % 0.0 mm 0 W/m2
01:30 1.0 °C 0.4 °C 1024.9 hPa Calm     96 % 0.0 mm 0 W/m2
01:35 1.2 °C 0.6 °C 1024.9 hPa Calm     96 % 0.0 mm 0 W/m2
01:40 1.3 °C 0.8 °C 1024.9 hPa Calm     96 % 0.0 mm 0 W/m2
01:45 1.1 °C 0.5 °C 1024.9 hPa Calm     96 % 0.0 mm 0 W/m2
01:50 0.6 °C 0.0 °C 1025.3 hPa Calm   1.6 km/h 96 % 0.0 mm 0 W/m2
01:55 0.4 °C -0.2 °C 1025.3 hPa Calm   1.6 km/h 96 % 0.0 mm 0 W/m2
02:00 0.3 °C -0.3 °C 1024.9 hPa Calm     96 % 0.0 mm 0 W/m2
02:05 0.8 °C 0.4 °C 1024.9 hPa Calm     97 % 0.0 mm 0 W/m2
02:10 0.9 °C 0.3 °C 1024.9 hPa Calm     96 % 0.0 mm 0 W/m2
02:15 0.8 °C 0.2 °C 1024.9 hPa Calm     96 % 0.0 mm 0 W/m2
02:20 0.7 °C 0.2 °C 1024.9 hPa ESE 1.6 km/h 1.6 km/h 96 % 0.0 mm 0 W/m2
02:25 1.0 °C 0.6 °C 1024.9 hPa Calm   3.2 km/h 97 % 0.0 mm 0 W/m2
02:30 1.0 °C 0.4 °C 1024.6 hPa Calm   3.2 km/h 96 % 0.0 mm 0 W/m2
02:35 0.6 °C 0.0 °C 1024.9 hPa Calm   1.6 km/h 96 % 0.0 mm 0 W/m2
02:40 0.3 °C -0.3 °C 1024.9 hPa Calm     96 % 0.0 mm 0 W/m2
02:45 0.2 °C -0.4 °C 1024.9 hPa Calm     96 % 0.0 mm 0 W/m2
02:50 0.0 °C -0.6 °C 1024.9 hPa Calm     96 % 0.0 mm 0 W/m2
02:55 0.1 °C -0.5 °C 1024.9 hPa Calm     96 % 0.0 mm 0 W/m2
03:00 0.3 °C -0.1 °C 1024.9 hPa Calm     97 % 0.0 mm 0 W/m2
03:05 0.3 °C -0.1 °C 1024.9 hPa Calm     97 % 0.0 mm 0 W/m2
03:10 0.2 °C -0.4 °C 1024.9 hPa Calm     96 % 0.0 mm 0 W/m2
03:15 0.1 °C -0.5 °C 1024.9 hPa Calm     96 % 0.0 mm 0 W/m2
03:20 -0.2 °C -0.7 °C 1025.3 hPa Calm     96 % 0.0 mm 0 W/m2
03:25 -0.2 °C -0.8 °C 1024.9 hPa Calm     96 % 0.0 mm 0 W/m2
03:30 -0.1 °C -0.5 °C 1024.9 hPa Calm     97 % 0.0 mm 0 W/m2
03:35 -0.1 °C -0.5 °C 1024.9 hPa Calm     97 % 0.0 mm 0 W/m2
03:40 0.2 °C -0.3 °C 1024.9 hPa Calm     97 % 0.0 mm 0 W/m2
03:45 0.2 °C -0.3 °C 1024.9 hPa Calm   1.6 km/h 97 % 0.0 mm 0 W/m2
03:50 0.4 °C 0.0 °C 1024.6 hPa Calm   1.6 km/h 97 % 0.0 mm 0 W/m2
03:55 0.5 °C 0.1 °C 1024.6 hPa ESE 3.2 km/h 3.2 km/h 97 % 0.0 mm 0 W/m2
04:00 0.6 °C 0.1 °C 1024.6 hPa ESE 1.6 km/h 4.8 km/h 97 % 0.0 mm 0 W/m2
04:05 0.5 °C 0.1 °C 1024.6 hPa ESE 1.6 km/h 4.8 km/h 97 % 0.0 mm 0 W/m2
04:10 0.6 °C 0.2 °C 1024.6 hPa Calm   3.2 km/h 97 % 0.0 mm 0 W/m2
04:20 0.2 °C -0.3 °C 1024.6 hPa Calm   1.6 km/h 96 % 0.0 mm 0 W/m2
04:25 0.4 °C 0.0 °C 1024.6 hPa Calm   1.6 km/h 97 % 0.0 mm 0 W/m2
04:30 0.3 °C -0.3 °C 1024.6 hPa Calm   1.6 km/h 96 % 0.0 mm 0 W/m2
04:35 0.3 °C -0.1 °C 1024.6 hPa Calm   1.6 km/h 97 % 0.0 mm 0 W/m2
04:40 0.2 °C -0.4 °C 1024.6 hPa Calm   1.6 km/h 96 % 0.0 mm 0 W/m2
04:45 0.3 °C -0.1 °C 1024.6 hPa Calm   3.2 km/h 97 % 0.0 mm 0 W/m2
04:50 0.2 °C -0.3 °C 1024.6 hPa Calm   3.2 km/h 97 % 0.0 mm 0 W/m2
04:55 -0.1 °C -0.7 °C 1024.6 hPa Calm   1.6 km/h 96 % 0.0 mm 0 W/m2
05:00 -0.3 °C -0.7 °C 1024.9 hPa Calm   1.6 km/h 97 % 0.0 mm 0 W/m2
05:05 -0.4 °C -0.8 °C 1024.9 hPa Calm     97 % 0.0 mm 0 W/m2
05:10 -0.6 °C -1.0 °C 1024.9 hPa Calm     97 % 0.0 mm 0 W/m2
05:15 -0.7 °C -1.1 °C 1024.9 hPa Calm     97 % 0.0 mm 0 W/m2
05:20 -0.8 °C -1.2 °C 1024.9 hPa Calm     97 % 0.0 mm 0 W/m2
05:25 -0.7 °C -1.1 °C 1024.9 hPa Calm     97 % 0.0 mm 0 W/m2
05:30 -0.8 °C -1.2 °C 1024.9 hPa Calm     97 % 0.0 mm 0 W/m2
05:35 -0.8 °C -1.2 °C 1024.9 hPa Calm     97 % 0.0 mm 0 W/m2
05:40 -0.3 °C -0.8 °C 1024.9 hPa ESE 1.6 km/h 3.2 km/h 97 % 0.0 mm 0 W/m2
05:45 -0.3 °C -0.8 °C 1024.9 hPa Calm   3.2 km/h 97 % 0.0 mm 0 W/m2
05:50 -0.6 °C -1.0 °C 1025.3 hPa Calm   3.2 km/h 97 % 0.0 mm 0 W/m2
05:55 -0.8 °C -1.2 °C 1025.6 hPa ESE 1.6 km/h 1.6 km/h 97 % 0.0 mm 0 W/m2
06:00 -1.0 °C -1.4 °C 1025.6 hPa Calm   3.2 km/h 97 % 0.0 mm 0 W/m2
06:05 -0.7 °C -1.1 °C 1025.6 hPa Calm   3.2 km/h 97 % 0.0 mm 0 W/m2
06:10 -0.6 °C -1.0 °C 1025.6 hPa Calm   1.6 km/h 97 % 0.0 mm 0 W/m2
06:15 -0.8 °C -1.2 °C 1026.0 hPa Calm   1.6 km/h 97 % 0.0 mm 0 W/m2
06:20 -0.9 °C -1.4 °C 1026.0 hPa Calm   1.6 km/h 97 % 0.0 mm 0 W/m2
06:25 -0.8 °C -1.2 °C 1026.3 hPa Calm     97 % 0.0 mm 0 W/m2
06:30 -0.7 °C -1.1 °C 1026.0 hPa Calm     97 % 0.0 mm 0 W/m2
06:35 -0.6 °C -1.0 °C 1026.0 hPa Calm     97 % 0.0 mm 0 W/m2
06:40 -0.7 °C -1.1 °C 1026.0 hPa Calm     97 % 0.0 mm 0 W/m2
06:45 -0.6 °C -1.0 °C 1026.0 hPa Calm     97 % 0.0 mm 0 W/m2
06:50 -0.7 °C -1.1 °C 1026.0 hPa Calm     97 % 0.0 mm 0 W/m2
06:55 -0.6 °C -1.0 °C 1026.0 hPa Calm     97 % 0.0 mm 0 W/m2
07:00 -0.3 °C -0.8 °C 1026.0 hPa Calm   1.6 km/h 97 % 0.0 mm 0 W/m2
07:05 -0.3 °C -0.8 °C 1026.0 hPa Calm   1.6 km/h 97 % 0.0 mm 0 W/m2
07:10 -0.3 °C -0.8 °C 1026.0 hPa Calm   1.6 km/h 97 % 0.0 mm 0 W/m2
07:15 -0.7 °C -1.1 °C 1026.0 hPa Calm   1.6 km/h 97 % 0.0 mm 0 W/m2
07:20 -0.9 °C -1.3 °C 1026.0 hPa Calm     97 % 0.0 mm 0 W/m2
07:25 -0.8 °C -1.2 °C 1026.0 hPa Calm     97 % 0.0 mm 0 W/m2
07:35 -0.7 °C -1.1 °C 1026.3 hPa Calm     97 % 0.0 mm 0 W/m2
07:40 -0.8 °C -1.2 °C 1026.3 hPa Calm     97 % 0.0 mm 0 W/m2
07:45 -0.9 °C -1.3 °C 1026.3 hPa Calm     97 % 0.0 mm 0 W/m2
07:50 -0.9 °C -1.4 °C 1026.6 hPa Calm     97 % 0.0 mm 0 W/m2
07:55 -1.1 °C -1.5 °C 1026.6 hPa Calm     97 % 0.0 mm 0 W/m2
08:00 -1.2 °C -1.6 °C 1026.6 hPa Calm     97 % 0.0 mm 5 W/m2
08:05 -1.3 °C -1.7 °C 1027.0 hPa Calm     97 % 0.0 mm 5 W/m2
08:10 -1.0 °C -1.4 °C 1027.0 hPa Calm     97 % 0.0 mm 5 W/m2
08:15 -1.0 °C -1.4 °C 1027.0 hPa Calm     97 % 0.0 mm 11 W/m2
08:20 -0.9 °C -1.4 °C 1027.0 hPa Calm     97 % 0.0 mm 14 W/m2
08:25 -0.8 °C -1.2 °C 1027.0 hPa Calm     97 % 0.0 mm 19 W/m2
08:30 -0.8 °C -1.2 °C 1027.0 hPa Calm     97 % 0.0 mm 23 W/m2
08:35 -0.6 °C -1.0 °C 1027.0 hPa Calm     97 % 0.0 mm 30 W/m2
08:40 -0.2 °C -0.4 °C 1027.0 hPa Calm     98 % 0.0 mm 33 W/m2
08:45 0.2 °C -0.1 °C 1027.0 hPa ESE 1.6 km/h 1.6 km/h 98 % 0.0 mm 39 W/m2
08:50 0.3 °C 0.0 °C 1027.0 hPa Calm   1.6 km/h 98 % 0.0 mm 40 W/m2
08:55 0.4 °C 0.2 °C 1027.3 hPa Calm   1.6 km/h 98 % 0.0 mm 42 W/m2
09:00 0.7 °C 0.4 °C 1027.3 hPa Calm   1.6 km/h 98 % 0.0 mm 44 W/m2
09:05 1.0 °C 0.7 °C 1027.3 hPa Calm   1.6 km/h 98 % 0.0 mm 49 W/m2
09:10 1.1 °C 0.8 °C 1027.3 hPa Calm   1.6 km/h 98 % 0.0 mm 54 W/m2
09:15 1.2 °C 0.9 °C 1027.3 hPa Calm     98 % 0.0 mm 58 W/m2
09:20 1.7 °C 1.4 °C 1027.3 hPa Calm     98 % 0.0 mm 58 W/m2
09:25 1.9 °C 1.6 °C 1027.3 hPa Calm   1.6 km/h 98 % 0.0 mm 63 W/m2
09:30 2.1 °C 1.8 °C 1027.3 hPa Calm   1.6 km/h 98 % 0.0 mm 65 W/m2
09:35 2.3 °C 2.0 °C 1027.7 hPa Calm   3.2 km/h 98 % 0.0 mm 67 W/m2
09:40 2.4 °C 2.1 °C 1027.7 hPa ESE 1.6 km/h 3.2 km/h 98 % 0.0 mm 67 W/m2
09:45 2.5 °C 2.2 °C 1027.7 hPa Calm   3.2 km/h 98 % 0.0 mm 69 W/m2
09:50 2.7 °C 2.4 °C 1027.7 hPa Calm   3.2 km/h 98 % 0.0 mm 74 W/m2
09:55 3.1 °C 2.8 °C 1027.7 hPa Calm   1.6 km/h 98 % 0.0 mm 81 W/m2
10:00 3.4 °C 3.2 °C 1027.7 hPa Calm   1.6 km/h 98 % 0.0 mm 90 W/m2
10:05 3.8 °C 3.5 °C 1027.7 hPa ESE 1.6 km/h 6.4 km/h 98 % 0.0 mm 105 W/m2
10:10 4.3 °C 3.9 °C 1027.7 hPa ESE 1.6 km/h 6.4 km/h 98 % 0.0 mm 121 W/m2
10:15 4.6 °C 4.3 °C 1027.7 hPa Calm   4.8 km/h 98 % 0.0 mm 267 W/m2
10:20 4.9 °C 4.7 °C 1027.7 hPa Calm   1.6 km/h 98 % 0.0 mm 290 W/m2
10:25 5.3 °C 5.0 °C 1028.0 hPa Calm     98 % 0.0 mm 299 W/m2
10:30 5.8 °C 5.4 °C 1028.0 hPa Calm     97 % 0.0 mm 255 W/m2
10:35 6.2 °C 5.6 °C 1028.0 hPa Calm     96 % 0.0 mm 218 W/m2
10:40 6.6 °C 5.8 °C 1028.0 hPa Calm     95 % 0.0 mm 334 W/m2
10:45 7.0 °C 6.1 °C 1028.0 hPa Calm     94 % 0.0 mm 250 W/m2
10:50 7.2 °C 6.0 °C 1028.0 hPa Calm     92 % 0.0 mm 339 W/m2
10:55 7.6 °C 6.2 °C 1028.0 hPa Calm   1.6 km/h 91 % 0.0 mm 329 W/m2
11:00 7.9 °C 6.3 °C 1027.7 hPa Calm   1.6 km/h 90 % 0.0 mm 359 W/m2
11:05 8.2 °C 6.3 °C 1027.7 hPa Calm   1.6 km/h 88 % 0.0 mm 304 W/m2
11:10 8.6 °C 6.5 °C 1027.7 hPa Calm   3.2 km/h 87 % 0.0 mm 362 W/m2
11:15 8.9 °C 6.7 °C 1027.7 hPa Calm   3.2 km/h 86 % 0.0 mm 253 W/m2
11:20 9.2 °C 6.6 °C 1027.7 hPa SW 1.6 km/h 6.4 km/h 84 % 0.0 mm 381 W/m2
11:25 9.4 °C 6.7 °C 1027.7 hPa West 1.6 km/h 8.0 km/h 83 % 0.0 mm 420 W/m2
11:30 9.6 °C 6.7 °C 1028.0 hPa WNW 6.4 km/h 8.0 km/h 82 % 0.0 mm 418 W/m2
11:35 9.7 °C 6.4 °C 1028.0 hPa WSW 1.6 km/h 8.0 km/h 80 % 0.0 mm 429 W/m2
11:40 9.9 °C 6.6 °C 1028.0 hPa West 3.2 km/h 8.0 km/h 80 % 0.0 mm 376 W/m2
11:45 10.1 °C 6.9 °C 1028.0 hPa Calm   6.4 km/h 81 % 0.0 mm 450 W/m2
11:50 10.3 °C 6.5 °C 1028.0 hPa WSW 6.4 km/h 6.4 km/h 77 % 0.0 mm 482 W/m2
11:55 10.2 °C 6.5 °C 1028.0 hPa WSW 3.2 km/h 8.0 km/h 78 % 0.0 mm 471 W/m2
12:00 10.6 °C 6.9 °C 1028.0 hPa WSW 4.8 km/h 8.0 km/h 78 % 0.0 mm 452 W/m2
12:05 10.7 °C 6.8 °C 1028.0 hPa West 3.2 km/h 8.0 km/h 77 % 0.0 mm 480 W/m2
12:10 10.7 °C 6.5 °C 1028.0 hPa WSW 4.8 km/h 8.0 km/h 75 % 0.0 mm 439 W/m2
12:15 10.7 °C 6.8 °C 1028.0 hPa NW 1.6 km/h 6.4 km/h 77 % 0.0 mm 496 W/m2
12:20 11.3 °C 7.3 °C 1028.0 hPa Calm   6.4 km/h 76 % 0.0 mm 508 W/m2
12:25 11.0 °C 6.5 °C 1028.0 hPa NW 4.8 km/h 8.0 km/h 74 % 0.0 mm 371 W/m2
12:30 11.2 °C 7.3 °C 1028.0 hPa WSW 4.8 km/h 8.0 km/h 77 % 0.0 mm 469 W/m2
12:35 11.1 °C 6.8 °C 1028.0 hPa WNW 4.8 km/h 8.0 km/h 75 % 0.0 mm 510 W/m2
12:40 10.9 °C 7.4 °C 1028.0 hPa West 4.8 km/h 8.0 km/h 79 % 0.0 mm 420 W/m2
12:45 10.9 °C 7.2 °C 1028.0 hPa WNW 3.2 km/h 8.0 km/h 78 % 0.0 mm 455 W/m2
12:50 10.8 °C 7.1 °C 1028.0 hPa WSW 8.0 km/h 11.3 km/h 78 % 0.0 mm 432 W/m2
13:00 10.3 °C 7.0 °C 1027.7 hPa WNW 6.4 km/h 11.3 km/h 80 % 0.0 mm 473 W/m2
13:05 10.2 °C 7.1 °C 1027.7 hPa WSW 6.4 km/h 9.7 km/h 81 % 0.0 mm 454 W/m2
13:10 10.1 °C 7.1 °C 1027.7 hPa West 3.2 km/h 9.7 km/h 82 % 0.0 mm 492 W/m2
13:15 10.3 °C 7.4 °C 1027.7 hPa West 8.0 km/h 11.3 km/h 82 % 0.0 mm 454 W/m2
13:20 10.4 °C 7.7 °C 1027.7 hPa West 3.2 km/h 12.9 km/h 83 % 0.0 mm 540 W/m2
13:25 10.0 °C 6.9 °C 1027.3 hPa WSW 4.8 km/h 12.9 km/h 81 % 0.0 mm 438 W/m2
13:30 9.9 °C 7.1 °C 1027.3 hPa SW 9.7 km/h 16.1 km/h 83 % 0.0 mm 422 W/m2
13:35 9.8 °C 7.1 °C 1027.3 hPa WSW 6.4 km/h 16.1 km/h 83 % 0.0 mm 345 W/m2
13:40 9.7 °C 7.1 °C 1027.3 hPa West 4.8 km/h 14.5 km/h 84 % 0.0 mm 339 W/m2
13:45 9.6 °C 7.0 °C 1027.3 hPa WSW 8.0 km/h 14.5 km/h 84 % 0.0 mm 390 W/m2
13:50 9.7 °C 7.5 °C 1027.3 hPa WNW 6.4 km/h 14.5 km/h 86 % 0.0 mm 499 W/m2
13:55 10.2 °C 7.6 °C 1027.3 hPa West 8.0 km/h 14.5 km/h 84 % 0.0 mm 512 W/m2
14:00 10.3 °C 7.7 °C 1027.3 hPa WNW 4.8 km/h 14.5 km/h 84 % 0.0 mm 524 W/m2
14:05 10.0 °C 7.4 °C 1027.0 hPa WNW 9.7 km/h 14.5 km/h 84 % 0.0 mm 394 W/m2
14:10 9.8 °C 7.4 °C 1027.0 hPa West 8.0 km/h 16.1 km/h 85 % 0.0 mm 360 W/m2
14:15 9.8 °C 7.4 °C 1027.0 hPa West 4.8 km/h 16.1 km/h 85 % 0.0 mm 345 W/m2
14:20 9.8 °C 7.4 °C 1027.0 hPa West 4.8 km/h 14.5 km/h 85 % 0.0 mm 336 W/m2
14:25 10.1 °C 7.5 °C 1027.0 hPa WNW 9.7 km/h 14.5 km/h 84 % 0.0 mm 330 W/m2
14:30 10.0 °C 7.4 °C 1027.0 hPa WSW 4.8 km/h 14.5 km/h 84 % 0.0 mm 313 W/m2
14:45 10.4 °C 7.4 °C 1027.0 hPa West 6.4 km/h 14.5 km/h 82 % 0.0 mm 283 W/m2
14:50 10.2 °C 7.5 °C 1027.3 hPa WSW 8.0 km/h 12.9 km/h 83 % 0.0 mm 308 W/m2
14:55 10.5 °C 7.7 °C 1027.3 hPa WSW 3.2 km/h 12.9 km/h 83 % 0.0 mm 315 W/m2
15:00 10.7 °C 8.1 °C 1027.3 hPa WNW 8.0 km/h 11.3 km/h 84 % 0.0 mm 265 W/m2
15:05 10.8 °C 8.0 °C 1027.3 hPa WNW 1.6 km/h 11.3 km/h 83 % 0.0 mm 260 W/m2
15:10 10.9 °C 8.2 °C 1027.3 hPa West 3.2 km/h 11.3 km/h 83 % 0.0 mm 338 W/m2
15:15 11.1 °C 8.2 °C 1027.0 hPa WSW 3.2 km/h 11.3 km/h 82 % 0.0 mm 301 W/m2
15:20 11.3 °C 8.4 °C 1027.0 hPa WSW 8.0 km/h 11.3 km/h 82 % 0.0 mm 397 W/m2
15:25 11.4 °C 8.5 °C 1027.0 hPa WSW 6.4 km/h 11.3 km/h 82 % 0.0 mm 399 W/m2
15:30 11.6 °C 8.3 °C 1027.0 hPa WSW 9.7 km/h 11.3 km/h 80 % 0.0 mm 388 W/m2
15:35 11.7 °C 8.2 °C 1027.0 hPa West 8.0 km/h 11.3 km/h 79 % 0.0 mm 392 W/m2
15:40 11.9 °C 8.4 °C 1027.0 hPa West 4.8 km/h 12.9 km/h 79 % 0.0 mm 381 W/m2
15:45 11.9 °C 8.0 °C 1027.0 hPa WSW 4.8 km/h 12.9 km/h 77 % 0.0 mm 346 W/m2
15:50 11.7 °C 8.4 °C 1027.0 hPa WNW 4.8 km/h 12.9 km/h 80 % 0.0 mm 343 W/m2
15:55 11.4 °C 8.2 °C 1027.0 hPa WSW 8.0 km/h 16.1 km/h 81 % 0.0 mm 299 W/m2
16:00 11.3 °C 8.4 °C 1027.0 hPa WSW 6.4 km/h 16.1 km/h 82 % 0.0 mm 301 W/m2
16:05 11.3 °C 8.3 °C 1027.0 hPa WSW 6.4 km/h 16.1 km/h 82 % 0.0 mm 301 W/m2
16:10 11.3 °C 8.3 °C 1026.6 hPa WSW 6.4 km/h 14.5 km/h 82 % 0.0 mm 290 W/m2
16:15 11.3 °C 8.5 °C 1027.0 hPa WNW 6.4 km/h 14.5 km/h 83 % 0.0 mm 281 W/m2
16:25 11.3 °C 8.5 °C 1026.6 hPa WSW 6.4 km/h 11.3 km/h 83 % 0.0 mm 255 W/m2
16:30 11.3 °C 8.7 °C 1026.6 hPa WSW 4.8 km/h 12.9 km/h 84 % 0.0 mm 246 W/m2
16:35 11.1 °C 8.5 °C 1026.6 hPa West 6.4 km/h 12.9 km/h 84 % 0.0 mm 234 W/m2
16:40 11.1 °C 8.5 °C 1026.6 hPa West 4.8 km/h 12.9 km/h 84 % 0.0 mm 223 W/m2
16:45 11.0 °C 8.4 °C 1026.6 hPa West 4.8 km/h 12.9 km/h 84 % 0.0 mm 183 W/m2
16:50 10.9 °C 8.3 °C 1026.6 hPa West 8.0 km/h 9.7 km/h 84 % 0.0 mm 200 W/m2
16:55 10.8 °C 8.4 °C 1026.6 hPa West 3.2 km/h 12.9 km/h 85 % 0.0 mm 132 W/m2
17:00 10.8 °C 8.4 °C 1026.3 hPa West 3.2 km/h 12.9 km/h 85 % 0.0 mm 65 W/m2
17:05 10.7 °C 8.3 °C 1026.3 hPa West 4.8 km/h 11.3 km/h 85 % 0.0 mm 62 W/m2
17:10 10.7 °C 8.3 °C 1026.3 hPa West 3.2 km/h 9.7 km/h 85 % 0.0 mm 54 W/m2
17:15 10.6 °C 8.2 °C 1026.3 hPa WNW 4.8 km/h 9.7 km/h 85 % 0.0 mm 53 W/m2
17:20 10.6 °C 8.3 °C 1026.3 hPa West 3.2 km/h 9.7 km/h 86 % 0.0 mm 60 W/m2
17:25 10.4 °C 8.2 °C 1026.3 hPa West 6.4 km/h 11.3 km/h 86 % 0.0 mm 47 W/m2
17:30 10.4 °C 8.1 °C 1026.3 hPa West 4.8 km/h 11.3 km/h 86 % 0.0 mm 46 W/m2
17:35 10.3 °C 8.1 °C 1026.6 hPa WNW 8.0 km/h 11.3 km/h 86 % 0.0 mm 42 W/m2
17:40 10.3 °C 8.1 °C 1026.6 hPa West 6.4 km/h 11.3 km/h 86 % 0.0 mm 40 W/m2
17:45 10.3 °C 8.0 °C 1026.6 hPa WNW 3.2 km/h 12.9 km/h 86 % 0.0 mm 37 W/m2
17:50 10.2 °C 8.0 °C 1027.0 hPa NW 6.4 km/h 12.9 km/h 86 % 0.0 mm 35 W/m2
17:55 10.2 °C 7.8 °C 1026.6 hPa NW 3.2 km/h 12.9 km/h 85 % 0.0 mm 32 W/m2
18:00 10.2 °C 7.8 °C 1026.3 hPa NW 9.7 km/h 12.9 km/h 85 % 0.0 mm 28 W/m2
18:05 10.1 °C 7.7 °C 1026.3 hPa NW 3.2 km/h 12.9 km/h 85 % 0.0 mm 23 W/m2
18:10 10.0 °C 7.4 °C 1026.3 hPa NW 9.7 km/h 16.1 km/h 84 % 0.0 mm 21 W/m2
18:15 9.8 °C 7.4 °C 1026.3 hPa WNW 6.4 km/h 16.1 km/h 85 % 0.0 mm 18 W/m2
18:20 9.7 °C 7.3 °C 1026.6 hPa WNW 6.4 km/h 12.9 km/h 85 % 0.0 mm 14 W/m2
18:25 9.6 °C 7.2 °C 1026.6 hPa WNW 11.3 km/h 12.9 km/h 85 % 0.0 mm 11 W/m2
18:30 9.5 °C 7.1 °C 1027.0 hPa NW 1.6 km/h 12.9 km/h 85 % 0.0 mm 7 W/m2
18:35 9.3 °C 7.1 °C 1027.0 hPa NW 6.4 km/h 12.9 km/h 86 % 0.0 mm 5 W/m2
18:40 9.1 °C 7.1 °C 1027.0 hPa WNW 3.2 km/h 12.9 km/h 87 % 0.0 mm 0 W/m2
18:45 9.0 °C 7.0 °C 1027.0 hPa West 6.4 km/h 12.9 km/h 87 % 0.0 mm 0 W/m2
18:50 8.8 °C 7.0 °C 1027.3 hPa WNW 6.4 km/h 11.3 km/h 88 % 0.0 mm 0 W/m2
18:55 8.9 °C 7.1 °C 1027.3 hPa West 4.8 km/h 11.3 km/h 88 % 0.0 mm 0 W/m2
19:00 9.0 °C 7.1 °C 1027.3 hPa WNW 3.2 km/h 9.7 km/h 88 % 0.0 mm 0 W/m2
19:05 9.0 °C 7.1 °C 1027.0 hPa West 4.8 km/h 9.7 km/h 88 % 0.0 mm 0 W/m2
19:10 8.9 °C 7.1 °C 1027.0 hPa West 4.8 km/h 8.0 km/h 88 % 0.0 mm 0 W/m2
19:15 8.9 °C 7.1 °C 1027.0 hPa West 1.6 km/h 6.4 km/h 88 % 0.0 mm 0 W/m2
19:20 9.1 °C 7.3 °C 1027.0 hPa West 4.8 km/h 6.4 km/h 89 % 0.0 mm 0 W/m2
19:25 9.2 °C 7.4 °C 1027.0 hPa Calm   6.4 km/h 89 % 0.0 mm 0 W/m2
19:30 9.3 °C 7.4 °C 1027.0 hPa WNW 4.8 km/h 8.0 km/h 88 % 0.0 mm 0 W/m2
19:35 9.4 °C 7.6 °C 1027.0 hPa WNW 3.2 km/h 8.0 km/h 88 % 0.0 mm 0 W/m2
19:40 9.4 °C 7.5 °C 1027.0 hPa WNW 6.4 km/h 9.7 km/h 88 % 0.0 mm 0 W/m2
19:50 9.4 °C 7.6 °C 1027.3 hPa Calm   8.0 km/h 88 % 0.0 mm 0 W/m2
19:55 9.5 °C 7.6 °C 1027.3 hPa Calm   8.0 km/h 88 % 0.0 mm 0 W/m2
20:00 9.4 °C 7.6 °C 1027.3 hPa West 1.6 km/h 8.0 km/h 88 % 0.0 mm 0 W/m2
20:05 9.6 °C 7.7 °C 1027.0 hPa West 1.6 km/h 4.8 km/h 88 % 0.0 mm 0 W/m2
20:10 9.6 °C 7.7 °C 1027.3 hPa WSW 3.2 km/h 8.0 km/h 88 % 0.0 mm 0 W/m2
20:15 9.6 °C 7.7 °C 1027.3 hPa West 3.2 km/h 8.0 km/h 88 % 0.0 mm 0 W/m2
20:20 9.6 °C 7.8 °C 1027.3 hPa Calm   8.0 km/h 89 % 0.0 mm 0 W/m2
20:25 9.5 °C 7.8 °C 1027.3 hPa West 1.6 km/h 4.8 km/h 89 % 0.0 mm 0 W/m2
20:30 9.4 °C 7.7 °C 1027.3 hPa Calm   6.4 km/h 89 % 0.0 mm 0 W/m2
20:35 9.4 °C 7.8 °C 1027.3 hPa West 3.2 km/h 6.4 km/h 90 % 0.0 mm 0 W/m2
20:40 9.4 °C 7.9 °C 1027.3 hPa West 1.6 km/h 6.4 km/h 90 % 0.0 mm 0 W/m2
20:45 9.4 °C 7.8 °C 1027.3 hPa Calm   6.4 km/h 90 % 0.0 mm 0 W/m2
20:50 9.3 °C 7.8 °C 1027.3 hPa Calm   3.2 km/h 90 % 0.0 mm 0 W/m2
20:55 9.3 °C 7.8 °C 1027.3 hPa Calm   3.2 km/h 90 % 0.0 mm 0 W/m2
21:00 9.2 °C 7.8 °C 1027.3 hPa West 3.2 km/h 3.2 km/h 91 % 0.0 mm 0 W/m2
21:05 9.2 °C 7.8 °C 1027.3 hPa Calm   3.2 km/h 91 % 0.0 mm 0 W/m2
21:15 8.8 °C 7.4 °C 1027.3 hPa West 1.6 km/h 6.4 km/h 91 % 0.0 mm 0 W/m2
21:20 8.8 °C 7.5 °C 1027.3 hPa West 3.2 km/h 6.4 km/h 92 % 0.0 mm 0 W/m2
21:25 8.7 °C 7.4 °C 1027.3 hPa West 3.2 km/h 6.4 km/h 92 % 0.0 mm 0 W/m2
21:30 8.7 °C 7.7 °C 1027.3 hPa West 4.8 km/h 6.4 km/h 93 % 0.0 mm 0 W/m2
21:35 8.7 °C 7.8 °C 1027.3 hPa Calm   8.0 km/h 94 % 0.0 mm 0 W/m2
21:40 8.6 °C 7.7 °C 1027.3 hPa West 3.2 km/h 8.0 km/h 94 % 0.0 mm 0 W/m2
21:45 8.7 °C 7.8 °C 1027.3 hPa West 3.2 km/h 6.4 km/h 94 % 0.0 mm 0 W/m2
21:50 8.7 °C 7.8 °C 1027.3 hPa Calm   6.4 km/h 94 % 0.0 mm 0 W/m2
21:55 8.4 °C 7.5 °C 1027.3 hPa Calm   6.4 km/h 94 % 0.0 mm 0 W/m2
22:00 8.1 °C 7.1 °C 1027.3 hPa WNW 1.6 km/h 4.8 km/h 94 % 0.0 mm 0 W/m2
22:05 7.9 °C 7.2 °C 1027.3 hPa Calm   4.8 km/h 95 % 0.0 mm 0 W/m2
22:10 7.8 °C 7.0 °C 1027.3 hPa Calm   3.2 km/h 95 % 0.0 mm 0 W/m2
22:15 7.7 °C 6.9 °C 1027.3 hPa Calm   3.2 km/h 95 % 0.0 mm 0 W/m2
22:20 7.6 °C 6.8 °C 1027.3 hPa Calm   3.2 km/h 95 % 0.0 mm 0 W/m2
22:25 7.4 °C 6.8 °C 1027.3 hPa Calm   4.8 km/h 96 % 0.0 mm 0 W/m2
22:30 7.1 °C 6.5 °C 1027.3 hPa WSW 3.2 km/h 4.8 km/h 96 % 0.0 mm 0 W/m2
22:35 6.9 °C 6.4 °C 1027.3 hPa Calm   4.8 km/h 96 % 0.0 mm 0 W/m2
22:40 6.7 °C 6.1 °C 1027.3 hPa Calm   4.8 km/h 96 % 0.0 mm 0 W/m2
22:45 6.7 °C 6.1 °C 1027.3 hPa Calm   4.8 km/h 96 % 0.0 mm 0 W/m2
22:50 6.9 °C 6.4 °C 1027.3 hPa Calm   4.8 km/h 97 % 0.0 mm 0 W/m2
22:55 7.1 °C 6.6 °C 1027.3 hPa Calm   3.2 km/h 97 % 0.0 mm 0 W/m2
23:00 7.0 °C 6.4 °C 1027.3 hPa Calm   3.2 km/h 96 % 0.0 mm 0 W/m2
23:05 7.1 °C 6.7 °C 1027.3 hPa Calm   3.2 km/h 97 % 0.0 mm 0 W/m2
23:10 6.9 °C 6.5 °C 1027.3 hPa Calm   4.8 km/h 97 % 0.0 mm 0 W/m2
23:15 7.3 °C 6.9 °C 1027.3 hPa WSW 4.8 km/h 6.4 km/h 97 % 0.0 mm 0 W/m2
23:20 7.8 °C 7.4 °C 1027.3 hPa Calm   6.4 km/h 97 % 0.0 mm 0 W/m2
23:25 7.9 °C 7.5 °C 1027.3 hPa Calm   6.4 km/h 97 % 0.0 mm 0 W/m2
23:30 8.0 °C 7.6 °C 1027.3 hPa WSW 3.2 km/h 6.4 km/h 97 % 0.0 mm 0 W/m2
23:35 8.2 °C 7.7 °C 1027.3 hPa Calm   4.8 km/h 97 % 0.0 mm 0 W/m2
23:40 8.2 °C 7.8 °C 1027.3 hPa Calm   4.8 km/h 97 % 0.0 mm 0 W/m2
23:45 8.3 °C 7.8 °C 1027.3 hPa Calm   4.8 km/h 97 % 0.0 mm 0 W/m2
23:50 8.3 °C 7.8 °C 1027.3 hPa West 1.6 km/h 6.4 km/h 97 % 0.0 mm 0 W/m2
23:55 8.3 °C 7.9 °C 1027.3 hPa Calm   6.4 km/h 97 % 0.0 mm 0 W/m2
Avec l'autorisation de Weather Underground - 1.75 mb